Time;durP1;ratioP1;P1;durP2;ratioP2;P2;SDS_P1;SDS_P2;PMS_P1;PMS_P2;Temp;Humidity;BMP_temperature;BMP_pressure;BME280_temperature;BME280_humidity;BME280_pressure;Samples;Min_cycle;Max_cycle;Signal;HPM_P1;HPM_P2
2023/09/03 00:01:02;;;;;;;3.53;1.50;;;14.60;99.90;;;;;;5132838;27;20537;-77
2023/09/03 00:03:48;;;;;;;6.47;2.42;;;14.50;99.90;;;;;;5133232;27;20369;-73
2023/09/03 00:06:34;;;;;;;2.72;1.30;;;14.50;99.90;;;;;;5100786;27;20083;-74
2023/09/03 00:09:20;;;;;;;3.55;1.15;;;14.50;99.90;;;;;;5136185;27;20055;-84
2023/09/03 00:12:06;;;;;;;5.38;1.15;;;14.40;99.90;;;;;;5134281;27;20039;-81
2023/09/03 00:14:54;;;;;;;2.00;0.95;;;14.40;99.90;;;;;;5133352;27;20047;-82
2023/09/03 00:17:40;;;;;;;3.55;1.40;;;14.30;99.90;;;;;;5133369;27;20050;-81
2023/09/03 00:20:26;;;;;;;3.97;1.17;;;14.30;99.90;;;;;;5133398;27;20043;-80
2023/09/03 00:23:13;;;;;;;3.28;0.90;;;14.30;99.90;;;;;;5132893;27;20043;-84
2023/09/03 00:26:00;;;;;;;3.40;1.08;;;14.30;99.90;;;;;;5132949;27;20078;-83
2023/09/03 00:28:46;;;;;;;3.20;1.13;;;14.30;99.90;;;;;;5114730;27;20513;-84
2023/09/03 00:31:32;;;;;;;3.75;1.38;;;14.30;99.90;;;;;;5114710;28;20112;-83
2023/09/03 00:34:18;;;;;;;5.07;1.38;;;14.20;99.90;;;;;;5125300;27;20079;-75
2023/09/03 00:37:04;;;;;;;3.25;1.25;;;14.20;99.90;;;;;;5115813;27;20191;-81
2023/09/03 00:39:50;;;;;;;5.95;1.40;;;14.20;99.90;;;;;;5100360;27;20058;-83
2023/09/03 00:42:37;;;;;;;2.78;1.20;;;14.20;99.90;;;;;;5132474;27;20556;-82
2023/09/03 00:45:23;;;;;;;5.00;1.58;;;14.20;99.90;;;;;;5115254;27;20571;-80
2023/09/03 00:48:12;;;;;;;5.28;1.50;;;14.20;99.90;;;;;;5132414;27;20047;-80
2023/09/03 00:51:02;;;;;;;6.00;1.55;;;14.20;99.90;;;;;;5132878;27;20063;-81
2023/09/03 00:53:51;;;;;;;6.35;3.20;;;14.20;99.90;;;;;;5113968;27;20091;-83
2023/09/03 00:56:38;;;;;;;5.82;3.30;;;14.30;99.90;;;;;;5132564;27;20054;-83
2023/09/03 00:59:28;;;;;;;4.72;2.53;;;14.30;99.90;;;;;;5131968;27;20616;-72
2023/09/03 01:02:17;;;;;;;4.07;2.13;;;14.30;99.90;;;;;;5134185;27;20053;-82
2023/09/03 01:05:04;;;;;;;7.55;2.30;;;14.30;99.90;;;;;;5132530;27;20195;-79
2023/09/03 01:07:50;;;;;;;5.78;3.58;;;14.30;99.90;;;;;;5131367;27;20047;-76
2023/09/03 01:11:03;;;;;;;10.25;4.38;;;14.30;99.90;;;;;;5132392;27;20119;-77
2023/09/03 01:14:28;;;;;;;11.00;6.85;;;14.30;99.90;;;;;;5131748;27;20142;-74
2023/09/03 01:17:17;;;;;;;10.85;6.90;;;14.30;99.90;;;;;;5131586;27;20058;-74
2023/09/03 01:20:14;;;;;;;10.57;6.20;;;14.40;99.90;;;;;;5132128;27;20051;-76
2023/09/03 01:23:18;;;;;;;12.90;6.95;;;14.40;99.90;;;;;;5133021;27;20138;-76
2023/09/03 01:26:21;;;;;;;10.88;7.18;;;14.40;99.90;;;;;;5132926;27;20093;-71
2023/09/03 01:29:08;;;;;;;14.63;8.93;;;14.40;99.90;;;;;;5117086;27;20082;-74
2023/09/03 01:31:56;;;;;;;12.30;8.35;;;14.40;99.90;;;;;;5117408;27;20051;-76
2023/09/03 01:34:44;;;;;;;13.55;9.57;;;14.40;99.90;;;;;;5132432;27;20563;-72
2023/09/03 01:37:30;;;;;;;16.15;11.20;;;14.50;99.90;;;;;;5131416;27;20156;-71
2023/09/03 01:40:16;;;;;;;12.57;8.27;;;14.50;99.90;;;;;;5132154;27;20084;-76
2023/09/03 01:43:02;;;;;;;13.35;8.73;;;14.50;99.90;;;;;;5131683;27;20047;-71
2023/09/03 01:46:04;;;;;;;10.40;7.20;;;14.50;99.90;;;;;;5131427;27;20049;-80
2023/09/03 01:49:44;;;;;;;10.50;8.13;;;14.50;99.90;;;;;;5132595;27;20051;-70
2023/09/03 01:52:43;;;;;;;20.73;8.23;;;14.50;99.90;;;;;;5012294;28;20080;-79
2023/09/03 01:55:33;;;;;;;14.02;8.20;;;14.50;99.90;;;;;;5131098;27;20051;-76
2023/09/03 01:58:22;;;;;;;10.60;7.20;;;14.50;99.90;;;;;;5131457;27;20058;-77
2023/09/03 02:01:10;;;;;;;11.48;6.60;;;14.40;99.90;;;;;;5112765;28;20521;-75
2023/09/03 02:03:56;;;;;;;10.13;6.95;;;14.40;99.90;;;;;;5131072;27;20122;-71
2023/09/03 02:06:49;;;;;;;10.38;7.10;;;14.30;99.90;;;;;;5130898;27;20479;-78
2023/09/03 02:09:35;;;;;;;12.63;7.72;;;14.30;99.90;;;;;;5110108;28;20066;-76
2023/09/03 02:12:23;;;;;;;10.70;6.72;;;14.30;99.90;;;;;;5108372;28;20411;-71
2023/09/03 02:15:09;;;;;;;10.27;6.57;;;14.20;99.90;;;;;;5112068;28;20048;-72
2023/09/03 02:17:55;;;;;;;13.45;8.55;;;14.20;99.90;;;;;;5109815;28;20109;-71
2023/09/03 02:20:42;;;;;;;9.00;5.85;;;14.10;99.90;;;;;;5109666;28;20051;-75
2023/09/03 02:23:28;;;;;;;9.68;6.25;;;14.10;99.90;;;;;;5110059;28;20060;-71
2023/09/03 02:26:14;;;;;;;10.48;7.22;;;14.00;99.90;;;;;;5108716;28;20497;-77
2023/09/03 02:29:00;;;;;;;8.75;5.80;;;14.00;99.90;;;;;;5108986;28;20143;-75
2023/09/03 02:31:46;;;;;;;11.70;7.78;;;14.00;99.90;;;;;;5094385;28;20051;-76
2023/09/03 02:34:32;;;;;;;11.02;7.07;;;14.00;99.90;;;;;;5094640;28;20414;-70
2023/09/03 02:37:18;;;;;;;10.35;7.28;;;13.90;99.90;;;;;;5110746;28;20047;-73
2023/09/03 02:40:05;;;;;;;10.23;6.32;;;13.90;99.90;;;;;;5111175;28;20142;-78
2023/09/03 02:42:51;;;;;;;11.02;6.10;;;13.90;99.90;;;;;;5110011;28;20483;-76
2023/09/03 02:45:37;;;;;;;8.68;5.95;;;13.80;99.90;;;;;;5109716;28;20134;-79
2023/09/03 02:48:23;;;;;;;9.75;5.80;;;13.80;99.90;;;;;;5109462;28;20066;-77
2023/09/03 02:51:09;;;;;;;10.48;6.97;;;13.80;99.90;;;;;;5109628;28;20138;-78
2023/09/03 02:53:55;;;;;;;8.30;5.18;;;13.80;99.90;;;;;;5108204;28;20058;-75
2023/09/03 02:56:41;;;;;;;12.02;6.93;;;13.80;99.90;;;;;;5113773;28;20047;-75
2023/09/03 02:59:28;;;;;;;13.27;7.68;;;13.70;99.90;;;;;;5114294;28;20130;-74
2023/09/03 03:02:14;;;;;;;10.35;6.10;;;13.70;99.90;;;;;;5114110;28;20047;-77
2023/09/03 03:05:01;;;;;;;8.02;5.80;;;13.70;99.90;;;;;;5113745;28;20083;-79
2023/09/03 03:07:47;;;;;;;8.90;5.80;;;13.70;99.90;;;;;;5114705;27;20126;-74
2023/09/03 03:10:33;;;;;;;7.82;5.32;;;13.70;99.90;;;;;;5116833;27;20096;-70
2023/09/03 03:13:19;;;;;;;9.90;6.25;;;13.60;99.90;;;;;;5134016;27;20050;-70
2023/09/03 03:16:10;;;;;;;9.75;5.95;;;13.60;99.90;;;;;;5115955;27;20134;-75
2023/09/03 03:18:56;;;;;;;8.82;4.88;;;13.60;99.90;;;;;;5119644;27;20134;-71
2023/09/03 03:21:42;;;;;;;13.65;6.72;;;13.50;99.90;;;;;;5133961;27;20053;-80
2023/09/03 03:24:28;;;;;;;9.90;6.70;;;13.60;99.90;;;;;;5115938;27;20059;-70
2023/09/03 03:27:14;;;;;;;9.23;6.15;;;13.60;99.90;;;;;;5134914;27;20130;-71
2023/09/03 03:30:00;;;;;;;9.93;6.00;;;13.60;99.90;;;;;;5134347;27;20118;-75
2023/09/03 03:32:46;;;;;;;8.57;5.05;;;13.60;99.90;;;;;;5133597;27;20047;-70
2023/09/03 03:35:35;;;;;;;8.80;4.72;;;13.60;99.90;;;;;;5102166;27;20505;-71
2023/09/03 03:38:21;;;;;;;9.52;6.03;;;13.60;99.90;;;;;;5133650;27;20039;-74
2023/09/03 03:41:13;;;;;;;11.20;5.97;;;13.60;99.90;;;;;;5115720;27;20051;-72
2023/09/03 03:43:59;;;;;;;10.23;6.78;;;13.70;99.90;;;;;;5134197;27;20130;-78
2023/09/03 03:46:45;;;;;;;9.00;6.53;;;13.60;99.90;;;;;;5137202;27;20039;-72
2023/09/03 03:49:31;;;;;;;10.70;5.75;;;13.60;99.90;;;;;;5133845;27;20493;-72
2023/09/03 03:52:17;;;;;;;8.55;6.22;;;13.60;99.90;;;;;;5134166;27;20105;-72
2023/09/03 03:55:04;;;;;;;12.02;6.93;;;13.60;99.90;;;;;;5133365;27;20084;-73
2023/09/03 03:57:50;;;;;;;6.60;4.25;;;13.60;99.90;;;;;;5115317;27;20133;-72
2023/09/03 04:00:36;;;;;;;9.90;5.72;;;13.60;99.90;;;;;;5134085;27;20040;-71
2023/09/03 04:03:23;;;;;;;9.27;5.80;;;13.60;99.90;;;;;;5133347;27;20115;-77
2023/09/03 04:06:09;;;;;;;7.90;5.18;;;13.60;99.90;;;;;;5115097;27;20055;-71
2023/09/03 04:08:55;;;;;;;6.72;4.03;;;13.70;99.90;;;;;;5115697;27;20055;-73
2023/09/03 04:11:41;;;;;;;6.22;4.32;;;13.70;99.90;;;;;;5133677;27;20040;-71
2023/09/03 04:14:27;;;;;;;9.00;6.28;;;13.70;99.90;;;;;;5101086;27;20085;-72
2023/09/03 04:17:13;;;;;;;9.07;6.65;;;13.70;99.90;;;;;;5133243;27;20047;-71
2023/09/03 04:19:59;;;;;;;8.90;6.43;;;13.70;99.90;;;;;;5133609;27;20191;-72
2023/09/03 04:22:45;;;;;;;11.25;5.18;;;13.70;99.90;;;;;;5118517;27;20043;-83
2023/09/03 04:25:31;;;;;;;11.10;5.00;;;13.70;99.90;;;;;;5134158;27;20050;-84
2023/09/03 04:28:20;;;;;;;7.40;4.93;;;13.70;99.90;;;;;;5119146;27;20047;-75
2023/09/03 04:31:10;;;;;;;8.38;5.30;;;13.80;99.90;;;;;;5135724;27;20047;-77
2023/09/03 04:33:56;;;;;;;10.25;6.85;;;13.80;99.90;;;;;;5120314;27;20051;-81
2023/09/03 04:36:42;;;;;;;12.30;6.50;;;13.80;99.90;;;;;;5102128;27;20215;-83
2023/09/03 04:39:28;;;;;;;7.68;4.95;;;13.80;99.90;;;;;;5119253;27;20054;-81
2023/09/03 04:42:14;;;;;;;8.57;5.38;;;13.80;99.90;;;;;;5138037;27;20051;-83
2023/09/03 04:45:00;;;;;;;6.93;4.07;;;13.80;99.90;;;;;;5132420;27;20414;-81
2023/09/03 04:47:46;;;;;;;10.10;6.22;;;13.80;99.90;;;;;;5132315;27;20047;-80
2023/09/03 04:50:32;;;;;;;10.95;5.00;;;13.80;99.90;;;;;;5132853;27;20047;-75
2023/09/03 04:53:18;;;;;;;8.57;5.25;;;13.80;99.90;;;;;;5133310;27;20051;-74
2023/09/03 04:56:11;;;;;;;10.27;5.38;;;13.80;99.90;;;;;;5135033;27;20055;-73
2023/09/03 04:58:57;;;;;;;8.35;4.78;;;13.80;99.90;;;;;;5132780;27;20047;-76
2023/09/03 05:01:43;;;;;;;8.63;4.60;;;13.80;99.90;;;;;;5132102;27;20046;-80
2023/09/03 05:04:29;;;;;;;8.30;5.53;;;13.80;99.90;;;;;;5132486;27;20069;-81
2023/09/03 05:07:15;;;;;;;8.20;4.82;;;13.80;99.90;;;;;;5100460;27;20058;-73
2023/09/03 05:10:01;;;;;;;6.80;4.63;;;13.90;99.90;;;;;;5131049;27;20102;-71
2023/09/03 05:12:47;;;;;;;8.52;4.95;;;13.90;99.90;;;;;;5113727;27;20039;-76
2023/09/03 05:15:34;;;;;;;7.68;5.68;;;13.90;99.90;;;;;;5131642;27;20074;-73
2023/09/03 05:18:20;;;;;;;8.65;5.40;;;14.00;99.90;;;;;;5132730;27;20047;-75
2023/09/03 05:21:10;;;;;;;10.25;6.43;;;14.00;99.90;;;;;;5132608;27;20051;-74
2023/09/03 05:23:56;;;;;;;7.60;5.13;;;14.10;99.90;;;;;;5132167;27;20062;-78
2023/09/03 05:26:43;;;;;;;9.80;6.50;;;14.10;99.90;;;;;;5132373;27;20058;-73
2023/09/03 05:29:29;;;;;;;10.38;6.88;;;14.10;99.90;;;;;;5131934;27;20456;-74
2023/09/03 05:32:16;;;;;;;9.90;6.25;;;14.20;99.90;;;;;;5113731;27;20133;-76
2023/09/03 05:35:03;;;;;;;7.20;5.45;;;14.20;99.90;;;;;;5131873;27;20156;-77
2023/09/03 05:37:49;;;;;;;12.50;6.85;;;14.30;99.90;;;;;;5114674;27;20886;-78
2023/09/03 05:40:35;;;;;;;10.32;5.22;;;14.40;99.90;;;;;;5131683;27;20257;-77
2023/09/03 05:43:21;;;;;;;13.10;7.97;;;14.40;99.90;;;;;;5130985;27;20499;-71
2023/09/03 05:46:07;;;;;;;8.10;5.95;;;14.50;99.90;;;;;;5114503;27;20036;-80
2023/09/03 05:48:53;;;;;;;10.60;6.63;;;14.50;99.90;;;;;;5131162;27;20050;-71
2023/09/03 05:51:40;;;;;;;11.65;7.50;;;14.60;99.90;;;;;;5113688;27;20439;-71
2023/09/03 05:54:26;;;;;;;18.63;10.18;;;14.60;99.90;;;;;;5131812;27;20043;-73
2023/09/03 05:57:12;;;;;;;14.95;8.63;;;14.70;99.90;;;;;;5130884;27;20047;-72
2023/09/03 05:59:59;;;;;;;17.88;9.45;;;14.70;99.90;;;;;;5130918;27;20077;-77
2023/09/03 06:02:45;;;;;;;14.18;9.25;;;14.80;99.90;;;;;;5112562;28;20051;-74
2023/09/03 06:05:31;;;;;;;16.65;8.85;;;14.90;99.90;;;;;;5131795;27;20523;-72
2023/09/03 06:08:17;;;;;;;14.82;9.95;;;14.90;99.90;;;;;;5112356;28;20059;-71
2023/09/03 06:11:04;;;;;;;14.23;9.20;;;15.00;99.90;;;;;;5134871;28;20058;-73
2023/09/03 06:13:50;;;;;;;14.95;8.50;;;15.00;99.90;;;;;;5132304;28;20039;-74
2023/09/03 06:16:36;;;;;;;14.20;9.88;;;15.10;99.90;;;;;;5131245;28;20047;-78
2023/09/03 06:19:23;;;;;;;13.73;10.15;;;15.20;99.90;;;;;;5131112;28;20055;-77
2023/09/03 06:22:10;;;;;;;11.70;8.82;;;15.30;99.90;;;;;;5132185;28;20053;-79
2023/09/03 06:24:56;;;;;;;11.88;8.48;;;15.40;99.90;;;;;;5131477;28;20050;-80
2023/09/03 06:27:42;;;;;;;14.88;9.55;;;15.40;99.90;;;;;;5131415;28;20062;-80
2023/09/03 06:30:28;;;;;;;13.07;9.25;;;15.50;99.90;;;;;;5132845;27;20061;-76
2023/09/03 06:33:14;;;;;;;13.05;8.45;;;15.50;99.90;;;;;;5135455;27;20058;-73
2023/09/03 06:36:00;;;;;;;11.05;8.45;;;15.60;99.90;;;;;;5117640;27;20109;-71
2023/09/03 06:38:47;;;;;;;10.25;7.75;;;15.70;99.90;;;;;;5120016;27;20051;-83
2023/09/03 06:41:33;;;;;;;13.20;7.13;;;15.80;99.90;;;;;;5135458;27;20082;-73
2023/09/03 06:44:21;;;;;;;10.38;7.03;;;15.90;99.90;;;;;;5135881;27;20047;-69
2023/09/03 06:47:07;;;;;;;12.50;6.85;;;16.10;99.90;;;;;;5116556;27;20559;-76
2023/09/03 06:49:53;;;;;;;14.48;6.60;;;16.20;99.90;;;;;;5116942;27;20059;-79
2023/09/03 06:52:39;;;;;;;13.70;6.88;;;16.30;99.90;;;;;;5120266;27;20053;-83
2023/09/03 06:55:25;;;;;;;10.30;6.82;;;16.40;99.90;;;;;;5116454;27;20047;-84
2023/09/03 06:58:12;;;;;;;10.43;6.53;;;16.60;99.90;;;;;;5134420;27;20146;-84
2023/09/03 07:00:58;;;;;;;13.65;7.07;;;16.70;99.90;;;;;;5134846;27;20101;-70
2023/09/03 07:03:44;;;;;;;10.88;6.60;;;16.80;99.90;;;;;;5116666;27;20474;-78
2023/09/03 07:06:30;;;;;;;9.63;6.07;;;16.90;99.90;;;;;;5134532;27;20073;-81
2023/09/03 07:09:16;;;;;;;10.10;5.72;;;17.00;99.90;;;;;;5134382;27;20051;-73
2023/09/03 07:12:02;;;;;;;8.45;5.75;;;17.20;99.90;;;;;;5116557;27;20059;-73
2023/09/03 07:14:48;;;;;;;10.77;6.72;;;17.30;99.90;;;;;;5136831;27;20048;-71
2023/09/03 07:21:17;;;;;;;10.70;6.13;;;17.40;99.90;;;;;;5116159;27;20056;-80
2023/09/03 07:24:03;;;;;;;9.77;5.88;;;17.30;99.90;;;;;;5134332;27;20104;-85
2023/09/03 07:26:49;;;;;;;11.70;6.88;;;17.40;99.90;;;;;;5133612;27;20047;-80
2023/09/03 07:29:35;;;;;;;9.05;5.85;;;17.30;99.90;;;;;;5134466;27;20047;-74
2023/09/03 07:32:21;;;;;;;11.13;7.25;;;17.40;99.90;;;;;;5115908;27;20435;-72
2023/09/03 07:35:08;;;;;;;8.93;5.82;;;17.40;99.90;;;;;;5133653;27;20047;-77
2023/09/03 07:37:54;;;;;;;8.27;5.82;;;17.60;99.90;;;;;;5134549;27;20050;-70
2023/09/03 07:40:40;;;;;;;10.20;6.70;;;17.60;99.90;;;;;;5115916;27;20058;-72
2023/09/03 07:43:26;;;;;;;11.50;6.75;;;17.70;99.90;;;;;;5134082;27;20053;-71
2023/09/03 07:46:12;;;;;;;9.50;6.88;;;17.90;99.90;;;;;;5116791;27;20047;-71
2023/09/03 07:48:58;;;;;;;9.00;5.75;;;18.20;99.90;;;;;;5134159;27;20057;-83
2023/09/03 07:51:44;;;;;;;8.25;5.57;;;18.40;99.90;;;;;;5133493;27;20047;-77
2023/09/03 07:54:30;;;;;;;7.80;5.20;;;18.50;99.90;;;;;;5133061;27;20051;-73
2023/09/03 07:57:16;;;;;;;9.70;6.15;;;18.50;99.90;;;;;;5133269;27;20563;-82
2023/09/03 08:00:03;;;;;;;10.02;5.45;;;18.40;99.90;;;;;;5133194;27;20084;-82
2023/09/03 08:02:50;;;;;;;10.00;5.90;;;18.40;99.90;;;;;;5133109;27;20047;-72
2023/09/03 08:05:36;;;;;;;8.02;5.78;;;18.50;99.90;;;;;;5133459;27;20058;-75
2023/09/03 08:08:22;;;;;;;11.77;5.97;;;18.50;99.90;;;;;;5132335;27;20059;-76
2023/09/03 08:11:08;;;;;;;7.28;4.97;;;18.70;99.90;;;;;;5132823;27;20051;-73
2023/09/03 08:13:59;;;;;;;9.20;5.00;;;18.90;99.90;;;;;;5133203;27;20414;-71
2023/09/03 08:16:45;;;;;;;9.75;5.57;;;19.00;99.90;;;;;;5132683;27;20519;-76
2023/09/03 08:19:31;;;;;;;6.88;4.35;;;19.10;99.90;;;;;;5132741;27;20043;-83
2023/09/03 08:22:18;;;;;;;6.93;3.83;;;19.20;99.90;;;;;;5132585;27;20039;-75
2023/09/03 08:25:04;;;;;;;8.52;3.88;;;19.40;99.90;;;;;;5132680;27;20504;-79
2023/09/03 08:27:50;;;;;;;8.57;3.97;;;19.50;99.90;;;;;;5133836;27;20047;-79
2023/09/03 08:30:37;;;;;;;9.80;4.40;;;19.60;99.90;;;;;;5131827;27;20051;-78
2023/09/03 08:33:23;;;;;;;8.43;4.40;;;19.70;99.90;;;;;;5132934;27;20452;-83
2023/09/03 08:36:10;;;;;;;11.13;4.22;;;19.90;99.90;;;;;;5132878;27;20054;-83
2023/09/03 08:38:56;;;;;;;7.55;4.07;;;19.90;99.90;;;;;;5132355;27;20043;-81
2023/09/03 08:41:45;;;;;;;8.60;3.70;;;20.00;99.90;;;;;;5133157;27;20503;-76
2023/09/03 08:44:38;;;;;;;7.88;3.25;;;20.30;99.90;;;;;;5132291;27;20142;-74
2023/09/03 08:47:24;;;;;;;5.18;2.53;;;20.50;99.90;;;;;;5117875;27;20051;-82
2023/09/03 08:50:17;;;;;;;8.80;2.72;;;20.60;99.90;;;;;;5133140;27;20083;-73
2023/09/03 08:53:04;;;;;;;8.80;2.60;;;20.80;99.90;;;;;;5131961;27;20096;-81
2023/09/03 08:55:50;;;;;;;7.22;3.05;;;20.60;99.90;;;;;;5132540;27;20071;-81
2023/09/03 08:58:36;;;;;;;6.57;3.00;;;20.60;99.90;;;;;;5132229;27;20047;-81
2023/09/03 09:01:23;;;;;;;5.80;2.38;;;20.60;99.90;;;;;;5132624;27;20058;-85
2023/09/03 09:04:09;;;;;;;8.02;2.53;;;20.60;99.90;;;;;;5132256;27;20098;-81
2023/09/03 09:06:58;;;;;;;8.30;3.22;;;20.80;99.90;;;;;;5132170;27;20043;-83
2023/09/03 09:09:50;;;;;;;6.28;3.10;;;20.90;99.90;;;;;;5131072;27;20566;-84
2023/09/03 09:13:02;;;;;;;5.05;2.28;;;20.90;99.90;;;;;;5113300;27;20058;-83
2023/09/03 09:15:48;;;;;;;6.45;2.70;;;21.00;99.90;;;;;;5132713;27;20047;-81
2023/09/03 09:18:34;;;;;;;6.78;2.60;;;21.40;99.90;;;;;;5132058;27;20054;-82
2023/09/03 09:21:21;;;;;;;7.60;2.38;;;21.50;99.90;;;;;;5131645;27;20040;-82
2023/09/03 09:24:07;;;;;;;5.70;3.35;;;21.70;99.90;;;;;;5131636;27;20104;-83
2023/09/03 09:26:53;;;;;;;7.25;2.50;;;21.50;99.90;;;;;;5132821;27;20035;-82
2023/09/03 09:29:39;;;;;;;5.60;2.88;;;21.80;99.90;;;;;;5131910;27;20080;-79
2023/09/03 09:32:25;;;;;;;7.20;3.70;;;21.90;99.90;;;;;;5131328;27;20050;-83
2023/09/03 09:35:25;;;;;;;6.57;2.20;;;22.10;99.90;;;;;;5131234;27;20494;-83
2023/09/03 09:38:11;;;;;;;5.45;2.67;;;22.30;99.90;;;;;;5131410;27;20392;-80
2023/09/03 09:40:57;;;;;;;4.30;2.08;;;22.30;99.90;;;;;;5131179;27;20054;-74
2023/09/03 09:43:46;;;;;;;4.53;1.42;;;22.30;99.90;;;;;;5114062;27;20047;-75
2023/09/03 09:46:35;;;;;;;5.00;2.00;;;22.10;99.90;;;;;;5131475;27;20418;-71
2023/09/03 09:49:22;;;;;;;5.85;2.30;;;22.30;99.90;;;;;;5130834;27;20442;-73
2023/09/03 09:52:08;;;;;;;4.35;1.90;;;22.40;99.90;;;;;;5113024;27;20594;-71
2023/09/03 09:54:54;;;;;;;3.20;1.27;;;22.70;99.90;;;;;;5130903;27;20058;-72
2023/09/03 09:57:40;;;;;;;5.93;2.15;;;22.80;99.90;;;;;;5130671;27;20788;-75
2023/09/03 10:00:38;;;;;;;6.07;2.17;;;22.80;99.90;;;;;;5131498;27;20047;-79
2023/09/03 10:03:46;;;;;;;5.15;1.48;;;22.90;99.90;;;;;;5131179;27;20047;-71
2023/09/03 10:06:34;;;;;;;6.88;1.75;;;23.00;99.90;;;;;;5131248;27;20047;-72
2023/09/03 10:09:20;;;;;;;4.00;1.40;;;23.00;99.90;;;;;;5130146;27;20063;-77
2023/09/03 10:12:08;;;;;;;3.33;1.40;;;22.90;99.90;;;;;;5131107;28;20047;-78
2023/09/03 10:14:54;;;;;;;4.82;1.63;;;23.00;99.90;;;;;;5131016;28;20490;-77
2023/09/03 10:17:41;;;;;;;5.57;1.83;;;23.40;99.90;;;;;;5131238;28;20047;-80
2023/09/03 10:20:28;;;;;;;5.28;1.85;;;23.50;99.90;;;;;;5130488;28;20039;-73
2023/09/03 10:23:18;;;;;;;7.20;2.47;;;23.70;99.90;;;;;;5130779;28;20089;-79
2023/09/03 10:26:06;;;;;;;4.35;2.08;;;24.00;99.90;;;;;;5131172;28;20081;-75
2023/09/03 10:28:59;;;;;;;7.03;2.40;;;24.10;99.90;;;;;;5130295;28;20074;-79
2023/09/03 10:31:47;;;;;;;4.63;1.90;;;24.30;99.90;;;;;;5130784;28;20085;-71
2023/09/03 10:34:36;;;;;;;7.28;1.92;;;24.50;99.90;;;;;;5112548;28;20051;-71
2023/09/03 10:37:36;;;;;;;4.88;1.50;;;24.70;99.90;;;;;;5130878;28;20055;-76
2023/09/03 10:40:24;;;;;;;4.75;1.30;;;24.80;99.60;;;;;;5131042;28;20055;-74
2023/09/03 10:43:18;;;;;;;4.78;1.40;;;24.90;99.90;;;;;;5132009;28;20055;-72
2023/09/03 10:46:05;;;;;;;3.78;0.95;;;25.20;99.60;;;;;;5131038;28;20459;-74
2023/09/03 10:48:54;;;;;;;4.10;1.10;;;25.40;99.50;;;;;;5130304;28;20083;-75
2023/09/03 10:51:43;;;;;;;5.30;1.15;;;25.50;99.40;;;;;;5130786;28;20047;-71
2023/09/03 10:54:29;;;;;;;5.25;1.45;;;25.60;99.00;;;;;;5130722;28;20486;-75
2023/09/03 10:57:16;;;;;;;4.28;1.30;;;25.50;99.10;;;;;;5130303;28;20096;-73
2023/09/03 11:00:04;;;;;;;4.20;0.95;;;25.50;99.00;;;;;;5130657;28;20082;-76
2023/09/03 11:03:10;;;;;;;3.83;1.38;;;25.40;99.00;;;;;;5130973;28;20100;-78
2023/09/03 11:06:18;;;;;;;3.42;1.00;;;25.30;98.60;;;;;;5130716;28;20399;-79
2023/09/03 11:09:05;;;;;;;3.53;1.27;;;25.40;98.10;;;;;;5130465;28;20055;-74
2023/09/03 11:12:00;;;;;;;3.72;1.02;;;25.80;98.20;;;;;;5112791;28;20134;-71
2023/09/03 11:14:50;;;;;;;1.58;0.65;;;26.10;97.80;;;;;;5130844;28;20071;-77
2023/09/03 11:17:36;;;;;;;2.85;1.10;;;26.30;97.50;;;;;;5133756;27;20035;-71
2023/09/03 11:20:35;;;;;;;4.45;1.38;;;26.70;97.20;;;;;;5134614;27;20047;-72
2023/09/03 11:23:21;;;;;;;2.22;0.70;;;27.00;96.60;;;;;;5134519;27;20054;-72
2023/09/03 11:26:13;;;;;;;5.07;1.30;;;26.90;97.00;;;;;;5133909;27;20108;-73
2023/09/03 11:29:02;;;;;;;4.70;1.35;;;27.00;95.70;;;;;;5134094;27;20066;-76
2023/09/03 11:31:49;;;;;;;2.70;0.98;;;27.20;95.10;;;;;;5113955;27;20072;-74
2023/09/03 11:34:35;;;;;;;4.03;1.30;;;27.50;95.60;;;;;;5115040;27;20047;-77
2023/09/03 11:37:21;;;;;;;3.28;1.20;;;27.60;95.30;;;;;;5133849;27;20111;-79
2023/09/03 11:40:09;;;;;;;3.15;0.80;;;27.70;94.90;;;;;;5134167;27;20047;-73
2023/09/03 11:42:55;;;;;;;4.80;0.90;;;27.80;95.30;;;;;;5134133;27;20055;-73
2023/09/03 11:45:41;;;;;;;4.07;1.17;;;27.90;95.10;;;;;;5134137;27;20043;-71
2023/09/03 11:48:29;;;;;;;2.63;0.98;;;28.00;95.20;;;;;;5133070;27;20051;-71
2023/09/03 11:51:26;;;;;;;4.25;1.38;;;27.90;94.90;;;;;;5115073;27;20039;-70
2023/09/03 11:54:25;;;;;;;4.85;1.20;;;28.20;94.00;;;;;;5115295;27;20134;-70
2023/09/03 11:57:14;;;;;;;2.88;0.90;;;28.50;94.00;;;;;;5133772;27;20051;-81
2023/09/03 12:00:00;;;;;;;4.53;1.15;;;28.60;94.70;;;;;;5115333;27;20414;-80
2023/09/03 12:02:47;;;;;;;3.35;1.13;;;28.80;94.00;;;;;;5119099;27;20153;-79
2023/09/03 12:05:35;;;;;;;2.70;0.77;;;29.30;93.80;;;;;;5132397;27;20139;-71
2023/09/03 12:08:21;;;;;;;4.60;0.90;;;29.80;92.90;;;;;;5133498;27;20063;-74
2023/09/03 12:11:08;;;;;;;5.00;1.73;;;30.10;92.70;;;;;;5115268;27;20134;-86
2023/09/03 12:13:54;;;;;;;2.58;1.02;;;30.10;91.80;;;;;;5133270;27;20039;-85
2023/09/03 12:16:47;;;;;;;3.88;1.17;;;29.70;92.20;;;;;;5133266;27;20051;-80
2023/09/03 12:19:51;;;;;;;2.50;1.02;;;29.40;91.90;;;;;;5118562;27;20486;-77
2023/09/03 12:22:38;;;;;;;2.78;0.90;;;29.40;92.10;;;;;;5133025;27;20451;-84
2023/09/03 12:25:24;;;;;;;5.95;1.10;;;29.30;92.80;;;;;;5132793;27;20054;-78
2023/09/03 12:28:10;;;;;;;4.80;0.88;;;29.90;91.80;;;;;;5132318;27;20408;-71
2023/09/03 12:30:58;;;;;;;1.95;0.90;;;30.30;91.40;;;;;;5132358;27;20385;-77
2023/09/03 12:33:48;;;;;;;3.78;0.90;;;30.50;90.80;;;;;;5114659;27;20474;-77
2023/09/03 12:36:58;;;;;;;3.38;0.95;;;30.50;90.70;;;;;;5132090;27;20107;-72
2023/09/03 12:39:45;;;;;;;2.78;0.98;;;31.00;89.90;;;;;;5132967;27;20051;-71
2023/09/03 12:42:31;;;;;;;5.30;0.98;;;31.30;88.80;;;;;;5132196;27;20050;-75
2023/09/03 12:45:17;;;;;;;2.72;1.02;;;31.10;89.60;;;;;;5133043;27;20050;-86
2023/09/03 12:48:03;;;;;;;3.88;1.05;;;30.40;89.00;;;;;;5132044;27;20043;-83
2023/09/03 12:50:49;;;;;;;2.92;0.90;;;29.70;89.80;;;;;;5117109;27;20039;-80
2023/09/03 12:53:35;;;;;;;2.35;0.95;;;28.80;90.40;;;;;;5133033;27;20451;-80
2023/09/03 12:56:21;;;;;;;3.92;0.90;;;27.80;91.30;;;;;;5118185;27;20047;-83
2023/09/03 12:59:08;;;;;;;3.55;1.10;;;27.30;92.30;;;;;;5132537;27;20054;-85
2023/09/03 13:01:54;;;;;;;4.65;1.10;;;26.80;93.30;;;;;;5114287;27;20054;-75
2023/09/03 13:04:40;;;;;;;4.32;1.38;;;26.60;93.80;;;;;;5133335;27;20043;-82
2023/09/03 13:07:26;;;;;;;2.42;1.23;;;26.20;94.10;;;;;;5115659;27;20054;-74
2023/09/03 13:10:12;;;;;;;3.08;1.20;;;26.00;94.60;;;;;;5110970;28;20051;-86
2023/09/03 13:12:58;;;;;;;4.10;1.00;;;26.00;94.90;;;;;;5111409;28;20048;-79
2023/09/03 13:15:45;;;;;;;3.83;1.38;;;26.00;94.90;;;;;;5111104;28;20827;-79
2023/09/03 13:18:31;;;;;;;3.83;1.60;;;26.00;95.00;;;;;;5111564;28;20054;-83
2023/09/03 13:21:18;;;;;;;4.20;1.10;;;25.90;95.60;;;;;;5110519;28;20048;-73
2023/09/03 13:24:05;;;;;;;4.13;1.20;;;26.00;95.30;;;;;;5110090;28;20047;-72
2023/09/03 13:26:52;;;;;;;4.45;1.27;;;26.20;95.10;;;;;;5110147;28;20051;-78
2023/09/03 13:29:38;;;;;;;5.18;1.30;;;26.60;95.30;;;;;;5111647;28;20059;-73
2023/09/03 13:32:24;;;;;;;2.85;0.90;;;28.20;94.00;;;;;;5109844;28;20051;-72
2023/09/03 13:35:10;;;;;;;3.33;1.02;;;29.80;92.20;;;;;;5111194;28;20143;-70
2023/09/03 13:37:56;;;;;;;7.25;1.70;;;30.90;90.40;;;;;;5110275;28;20048;-74
2023/09/03 13:40:43;;;;;;;2.45;1.08;;;31.50;88.40;;;;;;5110626;28;20112;-74
2023/09/03 13:43:29;;;;;;;2.83;1.00;;;32.00;86.60;;;;;;5111186;28;20051;-74
2023/09/03 13:46:15;;;;;;;3.80;1.10;;;33.50;84.50;;;;;;5111235;28;20521;-71
2023/09/03 13:49:01;;;;;;;2.95;0.85;;;32.90;82.10;;;;;;5111359;28;20101;-74
2023/09/03 13:51:48;;;;;;;3.20;1.10;;;33.10;81.50;;;;;;5111885;28;20096;-76
2023/09/03 13:54:34;;;;;;;2.83;1.00;;;34.10;80.70;;;;;;5110484;28;20100;-74
2023/09/03 13:57:20;;;;;;;5.38;1.33;;;34.60;79.00;;;;;;5108730;28;20093;-78
2023/09/03 14:00:06;;;;;;;4.03;1.00;;;35.30;77.10;;;;;;5111535;28;20399;-81
2023/09/03 14:02:53;;;;;;;5.25;1.20;;;35.90;75.20;;;;;;5111907;28;20506;-82
2023/09/03 14:05:39;;;;;;;4.25;1.33;;;36.20;74.10;;;;;;5112152;28;20047;-70
2023/09/03 14:08:25;;;;;;;5.63;1.00;;;36.00;72.60;;;;;;5116274;27;20063;-72
2023/09/03 14:11:11;;;;;;;3.40;1.10;;;35.70;72.70;;;;;;5132241;27;20151;-82
2023/09/03 14:13:57;;;;;;;5.15;1.13;;;35.60;72.60;;;;;;5113976;28;20051;-79
2023/09/03 14:16:43;;;;;;;3.53;1.13;;;35.50;71.60;;;;;;5132147;28;20520;-78
2023/09/03 14:19:29;;;;;;;2.78;0.90;;;35.70;71.60;;;;;;5135364;28;20506;-72
2023/09/03 14:22:16;;;;;;;3.15;1.00;;;35.60;70.90;;;;;;5117216;28;20051;-71
2023/09/03 14:25:02;;;;;;;3.75;1.10;;;35.40;71.30;;;;;;5134617;28;20047;-71
2023/09/03 14:27:48;;;;;;;5.28;1.73;;;35.20;71.50;;;;;;5132840;28;20454;-76
2023/09/03 14:30:36;;;;;;;3.42;1.27;;;35.40;71.30;;;;;;5135282;28;20043;-71
2023/09/03 14:33:22;;;;;;;3.47;0.90;;;36.10;70.60;;;;;;5133740;28;20533;-71